createdAt,value
2023-04-14T00:00:13.506Z,11.32
2023-04-14T00:01:17.030Z,10.96
2023-04-14T00:02:13.713Z,10.99
2023-04-14T00:03:10.911Z,10.87
2023-04-14T00:04:07.937Z,10.87
2023-04-14T00:05:05.418Z,11.16
2023-04-14T00:06:02.593Z,11.19
2023-04-14T00:07:00.158Z,11.47
2023-04-14T00:07:57.671Z,11.37
2023-04-14T00:08:54.344Z,11.11
2023-04-14T00:09:51.126Z,10.95
2023-04-14T00:10:47.864Z,10.70
2023-04-14T00:11:44.464Z,10.86
2023-04-14T00:12:41.176Z,11.05
2023-04-14T00:13:37.935Z,10.97
2023-04-14T00:14:34.554Z,10.52
2023-04-14T00:15:31.167Z,10.95
2023-04-14T00:16:27.891Z,10.91
2023-04-14T00:17:24.625Z,10.98
2023-04-14T00:18:21.274Z,9.45
2023-04-14T00:19:17.884Z,10.52
2023-04-14T00:20:14.508Z,11.04
2023-04-14T00:21:11.232Z,10.87
2023-04-14T00:22:08.475Z,10.76
2023-04-14T00:23:05.097Z,10.37
2023-04-14T00:24:01.705Z,11.27
2023-04-14T00:24:58.313Z,11.26
2023-04-14T00:25:55.103Z,11.34
2023-04-14T00:26:51.931Z,11.29
2023-04-14T00:27:48.536Z,10.98
2023-04-14T00:28:45.196Z,10.91
2023-04-14T00:29:41.820Z,10.80
2023-04-14T00:30:38.557Z,10.83
2023-04-14T00:31:35.482Z,10.66
2023-04-14T00:32:32.271Z,10.56
2023-04-14T00:33:28.930Z,10.71
2023-04-14T00:34:25.712Z,10.68
2023-04-14T00:35:22.510Z,10.61
2023-04-14T00:36:19.222Z,10.60
2023-04-14T00:37:16.746Z,10.64
2023-04-14T00:38:13.341Z,10.67
2023-04-14T00:39:09.989Z,10.73
2023-04-14T00:40:09.276Z,10.74
2023-04-14T00:41:05.974Z,10.63
2023-04-14T00:42:03.190Z,10.30
2023-04-14T00:42:59.763Z,10.57
2023-04-14T00:43:56.305Z,10.44
2023-04-14T00:44:52.991Z,10.39
2023-04-14T00:45:50.921Z,10.77
2023-04-14T00:46:48.017Z,11.36
2023-04-14T00:47:50.754Z,11.43
2023-04-14T00:48:48.036Z,10.99
2023-04-14T00:49:44.865Z,10.84
2023-04-14T00:50:42.565Z,10.58
2023-04-14T00:51:39.142Z,10.64
2023-04-14T00:52:37.688Z,10.78
2023-04-14T00:53:34.612Z,11.14
2023-04-14T00:54:32.670Z,10.59
2023-04-14T00:55:30.052Z,10.13
2023-04-14T00:56:26.822Z,10.23
2023-04-14T00:57:23.945Z,10.35
2023-04-14T00:58:20.843Z,10.32
2023-04-14T00:59:18.100Z,10.33
2023-04-14T01:00:15.815Z,10.36
2023-04-14T01:01:13.087Z,10.25
2023-04-14T01:02:10.544Z,10.23
2023-04-14T01:03:07.399Z,10.08
2023-04-14T01:04:04.733Z,10.33
2023-04-14T01:05:01.998Z,10.45
2023-04-14T01:05:58.774Z,10.78
2023-04-14T01:06:55.362Z,10.70
2023-04-14T01:07:52.866Z,11.06
2023-04-14T01:08:50.688Z,11.33
2023-04-14T01:09:47.730Z,11.05
2023-04-14T01:10:59.854Z,10.61
2023-04-14T01:12:19.282Z,10.54
2023-04-14T01:13:47.565Z,10.17
2023-04-14T01:15:02.282Z,10.31
2023-04-14T01:16:03.996Z,10.28
2023-04-14T01:17:10.380Z,10.62
2023-04-14T01:18:12.798Z,10.95
2023-04-14T01:19:47.449Z,10.50
2023-04-14T01:20:48.897Z,10.31
2023-04-14T01:21:52.441Z,10.30
2023-04-14T01:23:15.610Z,10.06
2023-04-14T01:24:30.888Z,10.46
2023-04-14T01:25:55.440Z,10.10
2023-04-14T01:27:04.825Z,10.36
2023-04-14T01:28:43.117Z,9.69
2023-04-14T01:30:24.525Z,10.62
2023-04-14T01:31:26.623Z,10.66
2023-04-14T01:32:25.665Z,10.78
2023-04-14T01:33:26.278Z,10.55
2023-04-14T01:34:34.249Z,10.27
2023-04-14T01:35:38.725Z,9.94
2023-04-14T01:36:42.417Z,10.23
2023-04-14T01:37:47.683Z,10.11
2023-04-14T01:38:47.589Z,10.17
2023-04-14T01:39:52.315Z,10.22
2023-04-14T01:40:51.667Z,10.16
2023-04-14T01:41:52.722Z,10.10
2023-04-14T01:42:59.539Z,10.03
2023-04-14T01:43:58.746Z,10.08
2023-04-14T01:44:58.949Z,10.07
2023-04-14T01:46:00.756Z,9.90
2023-04-14T01:47:02.426Z,9.96
2023-04-14T01:48:00.525Z,9.36
2023-04-14T01:48:57.382Z,10.00
2023-04-14T01:49:56.754Z,9.61
2023-04-14T01:50:55.545Z,9.93
2023-04-14T01:51:55.423Z,9.84
2023-04-14T01:52:57.106Z,9.46
2023-04-14T01:53:55.511Z,9.86
2023-04-14T01:54:54.698Z,9.88
2023-04-14T01:55:53.165Z,9.94
2023-04-14T01:56:52.465Z,9.95
2023-04-14T01:57:52.306Z,9.93
2023-04-14T01:58:50.118Z,10.22
2023-04-14T01:59:48.664Z,10.68
2023-04-14T02:00:46.597Z,10.60
2023-04-14T02:01:46.114Z,10.26
2023-04-14T02:02:48.475Z,10.87
2023-04-14T02:03:46.618Z,10.92
2023-04-14T02:04:44.528Z,10.92
2023-04-14T02:05:42.370Z,11.17
2023-04-14T02:06:40.767Z,10.79
2023-04-14T02:07:39.061Z,10.96
2023-04-14T02:08:40.777Z,10.86
2023-04-14T02:09:39.330Z,10.71
2023-04-14T02:10:38.741Z,10.58
2023-04-14T02:11:36.637Z,10.33
2023-04-14T02:12:36.299Z,10.42
2023-04-14T02:13:34.505Z,10.27
2023-04-14T02:14:32.648Z,10.33
2023-04-14T02:15:32.465Z,10.41
2023-04-14T02:16:29.962Z,10.45
2023-04-14T02:17:27.698Z,10.69
2023-04-14T02:18:25.984Z,10.38
2023-04-14T02:19:23.174Z,10.62
2023-04-14T02:20:21.361Z,10.37
2023-04-14T02:21:20.567Z,10.56
2023-04-14T02:22:17.150Z,10.69
2023-04-14T02:23:14.864Z,10.79
2023-04-14T02:24:11.678Z,11.18
2023-04-14T02:25:09.227Z,11.11
2023-04-14T02:26:12.701Z,11.13
2023-04-14T02:27:14.672Z,11.02
2023-04-14T02:28:19.679Z,10.69
2023-04-14T02:29:22.226Z,10.57
2023-04-14T02:30:30.268Z,10.64
2023-04-14T02:31:30.292Z,10.47
2023-04-14T02:32:29.975Z,10.03
2023-04-14T02:33:31.569Z,10.41
2023-04-14T02:34:33.864Z,10.28
2023-04-14T02:35:39.824Z,10.39
2023-04-14T02:37:00.853Z,10.37
2023-04-14T02:38:07.364Z,10.19
2023-04-14T02:39:10.458Z,10.41
2023-04-14T02:40:21.830Z,10.86
2023-04-14T02:41:26.708Z,10.90
2023-04-14T02:42:27.000Z,10.41
2023-04-14T02:43:30.898Z,10.97
2023-04-14T02:44:33.253Z,11.16
2023-04-14T02:45:33.035Z,11.23
2023-04-14T02:46:35.743Z,11.14
2023-04-14T02:47:38.154Z,10.99
2023-04-14T02:48:36.746Z,10.93
2023-04-14T02:49:37.131Z,10.95
2023-04-14T02:50:34.798Z,10.71
2023-04-14T02:51:33.091Z,10.74
2023-04-14T02:52:31.656Z,11.01
2023-04-14T02:53:28.717Z,10.91
2023-04-14T02:54:26.114Z,10.38
2023-04-14T02:55:23.488Z,10.60
2023-04-14T02:56:21.275Z,10.76
2023-04-14T02:57:18.430Z,10.94
2023-04-14T02:58:16.329Z,10.67
2023-04-14T02:59:13.222Z,10.25
2023-04-14T03:00:11.276Z,10.75
2023-04-14T03:01:08.268Z,9.85
2023-04-14T03:02:06.392Z,10.82
2023-04-14T03:03:05.427Z,10.59
2023-04-14T03:04:02.449Z,10.41
2023-04-14T03:05:00.785Z,10.73
2023-04-14T03:05:57.803Z,10.93
2023-04-14T03:06:55.904Z,10.89
2023-04-14T03:07:55.094Z,10.66
2023-04-14T03:08:54.041Z,10.71
2023-04-14T03:09:52.022Z,11.03
2023-04-14T03:10:48.991Z,11.14
2023-04-14T03:11:46.579Z,11.04
2023-04-14T03:12:44.260Z,11.10
2023-04-14T03:13:43.617Z,11.15
2023-04-14T03:14:41.601Z,11.05
2023-04-14T03:15:39.352Z,11.02
2023-04-14T03:16:39.422Z,11.23
2023-04-14T03:17:37.276Z,11.10
2023-04-14T03:18:35.555Z,10.91
2023-04-14T03:19:33.120Z,10.65
2023-04-14T03:20:30.440Z,10.66
2023-04-14T03:21:30.198Z,10.46
2023-04-14T03:22:28.338Z,11.00
2023-04-14T03:23:25.940Z,11.04
2023-04-14T03:24:27.420Z,10.78
2023-04-14T03:25:37.990Z,11.01
2023-04-14T03:26:37.462Z,10.68
2023-04-14T03:27:35.816Z,10.48
2023-04-14T03:28:37.553Z,10.78
2023-04-14T03:29:38.713Z,10.85
2023-04-14T03:30:40.584Z,10.78
2023-04-14T03:31:38.927Z,10.52
2023-04-14T03:32:42.037Z,10.90
2023-04-14T03:33:40.893Z,10.70
2023-04-14T03:34:46.627Z,10.40
2023-04-14T03:35:44.746Z,10.40
2023-04-14T03:36:43.696Z,10.65
2023-04-14T03:37:41.624Z,10.45
2023-04-14T03:38:39.529Z,10.06
2023-04-14T03:39:39.225Z,10.77
2023-04-14T03:40:40.127Z,10.84
2023-04-14T03:41:37.934Z,10.72
2023-04-14T03:42:36.161Z,10.70
2023-04-14T03:43:33.801Z,10.99
2023-04-14T03:44:34.470Z,10.49
2023-04-14T03:45:32.351Z,10.82
2023-04-14T03:46:30.326Z,10.53
2023-04-14T03:47:31.731Z,11.09
2023-04-14T03:48:34.339Z,10.59
2023-04-14T03:49:33.370Z,10.70
2023-04-14T03:50:36.833Z,10.80
2023-04-14T03:51:35.161Z,10.40
2023-04-14T03:52:35.610Z,10.69
2023-04-14T03:53:34.922Z,10.75
2023-04-14T03:54:33.848Z,10.84
2023-04-14T03:55:32.963Z,10.69
2023-04-14T03:56:32.603Z,10.69
2023-04-14T03:57:32.622Z,10.44
2023-04-14T03:58:30.947Z,10.58
2023-04-14T03:59:28.388Z,10.37
2023-04-14T04:00:27.187Z,10.51
2023-04-14T04:01:26.040Z,10.48
2023-04-14T04:02:24.329Z,10.59
2023-04-14T04:03:23.266Z,10.91
2023-04-14T04:04:21.449Z,10.54
2023-04-14T04:05:18.854Z,10.52
2023-04-14T04:06:15.968Z,10.76
2023-04-14T04:07:13.622Z,10.88
2023-04-14T04:08:11.479Z,10.41
2023-04-14T04:09:12.622Z,10.44
2023-04-14T04:10:12.574Z,10.02
2023-04-14T04:11:10.493Z,10.30
2023-04-14T04:12:08.272Z,10.73
2023-04-14T04:13:11.202Z,10.52
2023-04-14T04:14:09.597Z,10.60
2023-04-14T04:15:06.937Z,10.47
2023-04-14T04:16:07.529Z,10.56
2023-04-14T04:17:07.294Z,10.73
2023-04-14T04:18:07.303Z,10.72
2023-04-14T04:19:06.398Z,10.28
2023-04-14T04:20:08.068Z,10.58
2023-04-14T04:21:04.931Z,10.67
2023-04-14T04:22:03.040Z,10.86
2023-04-14T04:23:01.834Z,10.80
2023-04-14T04:24:01.673Z,10.96
2023-04-14T04:24:58.792Z,10.85
2023-04-14T04:25:58.708Z,10.80
2023-04-14T04:26:56.262Z,10.90
2023-04-14T04:27:53.111Z,10.95
2023-04-14T04:28:50.874Z,11.01
2023-04-14T04:29:48.210Z,10.92
2023-04-14T04:30:46.485Z,11.08
2023-04-14T04:31:43.237Z,11.18
2023-04-14T04:32:39.914Z,11.24
2023-04-14T04:33:37.258Z,11.09
2023-04-14T04:34:35.334Z,10.99
2023-04-14T04:35:32.992Z,11.13
2023-04-14T04:36:32.098Z,11.38
2023-04-14T04:37:30.169Z,11.12
2023-04-14T04:38:26.832Z,11.00
2023-04-14T04:39:23.386Z,11.24
2023-04-14T04:40:20.223Z,11.26
2023-04-14T04:41:30.272Z,11.07
2023-04-14T04:42:26.897Z,11.08
2023-04-14T04:43:23.464Z,10.54
2023-04-14T04:44:20.065Z,10.98
2023-04-14T04:45:36.615Z,11.07
2023-04-14T04:46:48.549Z,11.16
2023-04-14T04:47:45.587Z,11.06
2023-04-14T04:48:42.250Z,11.01
2023-04-14T04:49:38.932Z,10.50
2023-04-14T04:50:35.537Z,11.28
2023-04-14T04:51:32.174Z,11.15
2023-04-14T04:52:28.735Z,10.81
2023-04-14T04:53:25.482Z,11.20
2023-04-14T04:54:22.156Z,11.00
2023-04-14T04:55:18.777Z,11.00
2023-04-14T04:56:15.483Z,11.07
2023-04-14T04:57:12.330Z,11.16
2023-04-14T04:58:09.379Z,10.82
2023-04-14T04:59:06.037Z,10.94
2023-04-14T05:00:02.773Z,10.49
2023-04-14T05:00:59.500Z,10.61
2023-04-14T05:01:56.531Z,10.62
2023-04-14T05:02:53.501Z,10.94
2023-04-14T05:03:50.636Z,10.87
2023-04-14T05:04:48.868Z,10.82
2023-04-14T05:05:45.717Z,10.87
2023-04-14T05:06:42.417Z,10.76
2023-04-14T05:07:38.993Z,10.73
2023-04-14T05:08:35.579Z,10.71
2023-04-14T05:09:32.264Z,10.71
2023-04-14T05:10:28.956Z,10.73
2023-04-14T05:11:27.101Z,10.61
2023-04-14T05:12:23.694Z,10.77
2023-04-14T05:13:20.491Z,10.70
2023-04-14T05:14:17.111Z,10.94
2023-04-14T05:15:13.669Z,10.56
2023-04-14T05:16:11.659Z,10.43
2023-04-14T05:17:08.254Z,10.91
2023-04-14T05:18:04.924Z,10.66
2023-04-14T05:19:03.328Z,10.75
2023-04-14T05:20:00.111Z,10.82
2023-04-14T05:21:01.427Z,10.92
2023-04-14T05:21:58.025Z,10.75
2023-04-14T05:22:54.661Z,10.79
2023-04-14T05:23:51.405Z,10.82
2023-04-14T05:24:51.696Z,10.80
2023-04-14T05:25:48.351Z,10.84
2023-04-14T05:27:01.700Z,10.96
2023-04-14T05:28:01.809Z,10.97
2023-04-14T05:28:58.446Z,11.00
2023-04-14T05:29:55.483Z,11.00
2023-04-14T05:30:52.267Z,10.92
2023-04-14T05:31:48.952Z,11.17
2023-04-14T05:32:45.669Z,10.78
2023-04-14T05:33:42.373Z,11.11
2023-04-14T05:34:39.005Z,11.43
2023-04-14T05:35:35.698Z,11.75
2023-04-14T05:36:32.384Z,11.52
2023-04-14T05:37:30.068Z,11.73
2023-04-14T05:38:27.193Z,11.55
2023-04-14T05:39:23.933Z,11.99
2023-04-14T05:40:22.305Z,11.75
2023-04-14T05:41:18.947Z,11.15
2023-04-14T05:42:15.592Z,11.56
2023-04-14T05:43:12.375Z,11.92
2023-04-14T05:44:08.918Z,11.98
2023-04-14T05:45:06.385Z,12.04
2023-04-14T05:46:04.753Z,12.32
2023-04-14T05:47:01.492Z,12.19
2023-04-14T05:47:58.564Z,12.10
2023-04-14T05:48:56.870Z,12.07
2023-04-14T05:49:53.665Z,12.27
2023-04-14T05:50:50.287Z,12.02
2023-04-14T05:51:46.903Z,12.05
2023-04-14T05:52:43.638Z,12.02
2023-04-14T05:53:40.242Z,12.31
2023-04-14T05:54:36.870Z,12.69
2023-04-14T05:55:33.625Z,11.92
2023-04-14T05:56:30.274Z,12.38
2023-04-14T05:57:26.990Z,12.42
2023-04-14T05:58:24.954Z,12.16
2023-04-14T05:59:21.665Z,12.05
2023-04-14T06:00:19.889Z,12.51
2023-04-14T06:01:16.486Z,12.32
2023-04-14T06:02:13.209Z,12.47
2023-04-14T06:03:10.357Z,12.23
2023-04-14T06:04:07.423Z,12.19
2023-04-14T06:05:07.548Z,12.16
2023-04-14T06:06:04.885Z,12.48
2023-04-14T06:07:03.099Z,12.68
2023-04-14T06:07:59.762Z,12.52
2023-04-14T06:08:56.446Z,12.48
2023-04-14T06:09:53.328Z,12.17
2023-04-14T06:10:50.052Z,12.06
2023-04-14T06:11:46.737Z,12.56
2023-04-14T06:12:43.337Z,12.43
2023-04-14T06:13:39.986Z,12.38
2023-04-14T06:14:36.554Z,12.31
2023-04-14T06:15:33.136Z,12.03
2023-04-14T06:16:29.929Z,12.43
2023-04-14T06:17:26.730Z,12.43
2023-04-14T06:18:23.515Z,12.43
2023-04-14T06:19:20.276Z,12.72
2023-04-14T06:20:18.584Z,12.36
2023-04-14T06:21:15.468Z,12.14
2023-04-14T06:22:13.984Z,12.41
2023-04-14T06:23:10.927Z,11.96
2023-04-14T06:24:07.657Z,12.40
2023-04-14T06:25:04.661Z,12.55
2023-04-14T06:26:03.891Z,12.65
2023-04-14T06:27:03.778Z,12.56
2023-04-14T06:28:03.626Z,12.40
2023-04-14T06:29:01.206Z,11.85
2023-04-14T06:30:00.140Z,12.52
2023-04-14T06:30:56.830Z,12.55
2023-04-14T06:31:54.937Z,12.45
2023-04-14T06:32:54.441Z,12.60
2023-04-14T06:33:52.951Z,12.72
2023-04-14T06:34:51.936Z,12.92
2023-04-14T06:35:49.997Z,12.85
2023-04-14T06:36:46.655Z,12.82
2023-04-14T06:37:43.270Z,12.55
2023-04-14T06:38:39.925Z,12.87
2023-04-14T06:39:36.540Z,13.18
2023-04-14T06:40:33.124Z,13.05
2023-04-14T06:41:29.760Z,12.98
2023-04-14T06:42:26.364Z,12.59
2023-04-14T06:43:22.907Z,12.62
2023-04-14T06:44:19.532Z,12.77
2023-04-14T06:45:16.358Z,13.10
2023-04-14T06:46:13.106Z,13.23
2023-04-14T06:47:09.787Z,12.89
2023-04-14T06:48:07.898Z,13.00
2023-04-14T06:49:04.720Z,13.34
2023-04-14T06:50:03.118Z,13.46
2023-04-14T06:50:59.849Z,13.55
2023-04-14T06:51:56.389Z,13.54
2023-04-14T06:52:53.090Z,13.71
2023-04-14T06:53:49.710Z,13.70
2023-04-14T06:54:46.915Z,13.68
2023-04-14T06:55:43.582Z,13.57
2023-04-14T06:56:40.311Z,13.55
2023-04-14T06:57:36.940Z,13.61
2023-04-14T06:58:33.932Z,13.80
2023-04-14T06:59:30.678Z,13.28
2023-04-14T07:00:27.509Z,14.02
2023-04-14T07:01:24.626Z,13.72
2023-04-14T07:02:21.439Z,13.52
2023-04-14T07:03:18.209Z,13.78
2023-04-14T07:04:15.565Z,14.14
2023-04-14T07:05:12.508Z,13.97
2023-04-14T07:06:11.952Z,13.68
2023-04-14T07:07:08.694Z,13.95
2023-04-14T07:08:05.427Z,13.87
2023-04-14T07:09:02.348Z,14.01
2023-04-14T07:09:58.974Z,14.01
2023-04-14T07:10:59.778Z,13.96
2023-04-14T07:11:57.657Z,13.90
2023-04-14T07:12:54.324Z,14.03
2023-04-14T07:13:50.950Z,14.41
2023-04-14T07:14:52.029Z,14.37
2023-04-14T07:15:48.790Z,14.41
2023-04-14T07:16:45.514Z,14.52
2023-04-14T07:17:42.159Z,14.81
2023-04-14T07:18:38.849Z,14.64
2023-04-14T07:19:35.788Z,15.40
2023-04-14T07:20:32.596Z,15.44
2023-04-14T07:21:29.257Z,15.72
2023-04-14T07:22:25.870Z,16.09
2023-04-14T07:23:22.796Z,15.64
2023-04-14T07:24:19.431Z,15.39
2023-04-14T07:25:16.090Z,15.58
2023-04-14T07:26:12.783Z,15.47
2023-04-14T07:27:15.440Z,15.44
2023-04-14T07:28:12.285Z,16.04
2023-04-14T07:29:08.944Z,16.09
2023-04-14T07:30:06.332Z,16.29
2023-04-14T07:31:12.754Z,15.84
2023-04-14T07:32:09.506Z,16.19
2023-04-14T07:33:06.573Z,16.20
2023-04-14T07:34:03.578Z,15.74
2023-04-14T07:35:00.644Z,15.67
2023-04-14T07:36:57.125Z,16.27
2023-04-14T07:37:53.691Z,16.38
2023-04-14T07:38:51.826Z,16.34
2023-04-14T07:39:48.566Z,16.47
2023-04-14T07:40:45.819Z,16.57
2023-04-14T07:41:42.436Z,16.39
2023-04-14T07:42:39.030Z,16.32
2023-04-14T07:43:36.030Z,16.60
2023-04-14T07:44:33.318Z,16.14
2023-04-14T07:45:31.183Z,15.93
2023-04-14T07:46:27.962Z,15.72
2023-04-14T07:47:24.770Z,16.16
2023-04-14T07:48:21.972Z,15.97
2023-04-14T07:49:18.762Z,16.05
2023-04-14T07:50:18.471Z,16.58
2023-04-14T07:51:16.355Z,16.76
2023-04-14T07:52:12.954Z,16.67
2023-04-14T07:53:09.521Z,16.80
2023-04-14T07:54:06.303Z,16.66
2023-04-14T07:55:03.980Z,16.31
2023-04-14T07:56:00.991Z,16.27
2023-04-14T07:56:57.992Z,16.30
2023-04-14T07:57:54.650Z,16.09
2023-04-14T07:58:51.285Z,15.93
2023-04-14T07:59:47.917Z,16.15
2023-04-14T08:00:44.650Z,15.99
2023-04-14T08:01:41.742Z,16.36
2023-04-14T08:02:38.627Z,16.96
2023-04-14T08:03:37.512Z,16.95
2023-04-14T08:04:34.478Z,17.24
2023-04-14T08:05:31.311Z,17.21
2023-04-14T08:06:28.489Z,17.37
2023-04-14T08:07:28.651Z,17.51
2023-04-14T08:08:25.492Z,17.66
2023-04-14T08:09:22.348Z,17.31
2023-04-14T08:10:19.004Z,16.90
2023-04-14T08:11:15.712Z,17.16
2023-04-14T08:12:12.385Z,17.24
2023-04-14T08:13:09.377Z,16.74
2023-04-14T08:14:06.057Z,17.04
2023-04-14T08:15:02.825Z,17.14
2023-04-14T08:15:59.551Z,17.21
2023-04-14T08:16:56.167Z,17.39
2023-04-14T08:17:52.752Z,17.23
2023-04-14T08:18:49.448Z,17.22
2023-04-14T08:19:46.912Z,17.73
2023-04-14T08:20:43.562Z,17.27
2023-04-14T08:21:40.186Z,16.95
2023-04-14T08:22:36.966Z,17.13
2023-04-14T08:23:34.059Z,17.11
2023-04-14T08:24:31.087Z,17.22
2023-04-14T08:25:27.685Z,17.30
2023-04-14T08:26:24.525Z,17.59
2023-04-14T08:27:21.353Z,17.38
2023-04-14T08:28:18.419Z,17.33
2023-04-14T08:29:15.504Z,17.80
2023-04-14T08:30:12.533Z,17.28
2023-04-14T08:31:09.114Z,17.82
2023-04-14T08:32:05.968Z,18.04
2023-04-14T08:33:05.797Z,18.22
2023-04-14T08:34:03.163Z,18.08
2023-04-14T08:35:35.985Z,18.41
2023-04-14T08:36:16.549Z,18.30
2023-04-14T08:37:13.214Z,18.37
2023-04-14T08:38:10.168Z,18.66
2023-04-14T08:39:07.039Z,18.05
2023-04-14T08:40:04.896Z,18.04
2023-04-14T08:41:07.326Z,17.50
2023-04-14T08:42:05.230Z,17.80
2023-04-14T08:43:01.934Z,18.42
2023-04-14T08:43:58.581Z,18.07
2023-04-14T08:44:56.046Z,18.19
2023-04-14T08:45:53.580Z,18.41
2023-04-14T08:46:54.483Z,18.22
2023-04-14T08:47:55.160Z,18.37
2023-04-14T08:48:59.082Z,18.17
2023-04-14T08:50:01.659Z,19.20
2023-04-14T08:51:13.944Z,19.29
2023-04-14T08:52:14.380Z,18.84
2023-04-14T08:53:13.511Z,18.61
2023-04-14T08:54:11.501Z,18.41
2023-04-14T08:55:08.387Z,18.48
2023-04-14T08:56:08.808Z,18.23
2023-04-14T08:57:09.028Z,18.44
2023-04-14T08:58:08.190Z,18.39
2023-04-14T08:59:09.849Z,18.72
2023-04-14T09:00:07.201Z,19.06
2023-04-14T09:01:04.692Z,19.13
2023-04-14T09:02:05.609Z,19.08
2023-04-14T09:03:02.703Z,18.95
2023-04-14T09:04:01.797Z,19.11
2023-04-14T09:04:59.392Z,18.67
2023-04-14T09:05:56.649Z,18.66
2023-04-14T09:06:54.528Z,18.66
2023-04-14T09:07:51.826Z,18.31
2023-04-14T09:08:48.610Z,18.25
2023-04-14T09:09:45.382Z,18.33
2023-04-14T09:10:42.839Z,18.16
2023-04-14T09:11:40.674Z,18.22
2023-04-14T09:12:41.590Z,18.15
2023-04-14T09:13:40.673Z,18.19
2023-04-14T09:14:37.605Z,17.83
2023-04-14T09:15:34.302Z,17.91
2023-04-14T09:16:32.065Z,18.19
2023-04-14T09:17:31.043Z,17.97
2023-04-14T09:18:28.853Z,18.20
2023-04-14T09:19:28.222Z,18.12
2023-04-14T09:20:38.220Z,18.34
2023-04-14T09:21:53.968Z,18.21
2023-04-14T09:22:53.286Z,17.82
2023-04-14T09:23:50.514Z,17.56
2023-04-14T09:24:47.689Z,17.50
2023-04-14T09:25:45.311Z,17.53
2023-04-14T09:26:42.772Z,17.35
2023-04-14T09:27:40.107Z,17.13
2023-04-14T09:28:37.365Z,17.17
2023-04-14T09:29:34.197Z,17.16
2023-04-14T09:30:31.792Z,17.70
2023-04-14T09:31:28.652Z,17.62
2023-04-14T09:32:26.117Z,17.59
2023-04-14T09:33:23.724Z,17.21
2023-04-14T09:34:21.611Z,17.29
2023-04-14T09:35:18.332Z,16.97
2023-04-14T09:36:22.509Z,16.83
2023-04-14T09:37:19.930Z,16.75
2023-04-14T09:38:35.092Z,16.93
2023-04-14T09:39:32.850Z,17.08
2023-04-14T09:40:31.119Z,16.88
2023-04-14T09:41:28.075Z,16.86
2023-04-14T09:42:41.057Z,16.83
2023-04-14T09:43:37.678Z,16.91
2023-04-14T09:44:34.292Z,16.87
2023-04-14T09:45:44.892Z,16.68
2023-04-14T09:47:05.240Z,16.62
2023-04-14T09:48:08.354Z,16.41
2023-04-14T09:49:05.288Z,16.58
2023-04-14T09:50:04.152Z,16.22
2023-04-14T09:51:09.997Z,16.46
2023-04-14T09:52:09.804Z,16.08
2023-04-14T09:53:08.521Z,15.99
2023-04-14T09:54:06.268Z,16.09
2023-04-14T09:55:08.288Z,15.91
2023-04-14T09:56:10.638Z,15.92
2023-04-14T09:57:08.038Z,15.99
2023-04-14T09:58:04.741Z,16.28
2023-04-14T09:59:02.720Z,16.35
2023-04-14T09:59:59.902Z,16.11
2023-04-14T10:00:57.274Z,16.48
2023-04-14T10:01:58.537Z,16.36
2023-04-14T10:02:58.412Z,16.27
2023-04-14T10:03:55.222Z,16.27
2023-04-14T10:05:06.470Z,16.18
2023-04-14T10:06:07.424Z,16.11
2023-04-14T10:07:11.254Z,16.20
2023-04-14T10:08:07.896Z,16.20
2023-04-14T10:09:05.890Z,16.20
2023-04-14T10:10:07.553Z,15.97
2023-04-14T10:11:26.513Z,16.18
2023-04-14T10:12:23.204Z,16.28
2023-04-14T10:13:20.136Z,15.64
2023-04-14T10:14:18.080Z,16.24
2023-04-14T10:15:15.559Z,16.15
2023-04-14T10:16:12.376Z,16.06
2023-04-14T10:17:09.896Z,16.18
2023-04-14T10:18:07.101Z,16.10
2023-04-14T10:19:04.207Z,15.27
2023-04-14T10:20:01.106Z,16.15
2023-04-14T10:20:58.998Z,16.12
2023-04-14T10:21:56.304Z,15.97
2023-04-14T10:22:54.822Z,16.07
2023-04-14T10:23:52.475Z,16.05
2023-04-14T10:24:49.856Z,16.00
2023-04-14T10:25:49.300Z,15.63
2023-04-14T10:26:48.169Z,15.99
2023-04-14T10:27:45.334Z,16.00
2023-04-14T10:28:47.645Z,15.85
2023-04-14T10:29:44.248Z,15.82
2023-04-14T10:30:41.206Z,15.49
2023-04-14T10:31:40.307Z,15.82
2023-04-14T10:32:40.568Z,15.75
2023-04-14T10:33:40.466Z,15.72
2023-04-14T10:34:39.571Z,15.87
2023-04-14T10:35:41.724Z,15.64
2023-04-14T10:36:38.884Z,15.65
2023-04-14T10:37:36.813Z,15.64
2023-04-14T10:38:44.211Z,15.62
2023-04-14T10:39:41.432Z,15.67
2023-04-14T10:40:48.651Z,15.57
2023-04-14T10:41:48.253Z,15.43
2023-04-14T10:42:53.361Z,15.32
2023-04-14T10:43:50.072Z,15.39
2023-04-14T10:45:05.909Z,14.86
2023-04-14T10:46:03.843Z,14.70
2023-04-14T10:47:04.943Z,14.33
2023-04-14T10:48:03.836Z,14.29
2023-04-14T10:49:03.162Z,14.25
2023-04-14T10:50:11.217Z,13.99
2023-04-14T10:51:10.680Z,13.64
2023-04-14T10:52:27.663Z,13.52
2023-04-14T10:53:33.886Z,13.66
2023-04-14T10:54:53.396Z,13.39
2023-04-14T10:55:53.666Z,13.14
2023-04-14T10:57:12.661Z,13.29
2023-04-14T10:58:09.417Z,13.34
2023-04-14T10:59:05.976Z,11.46
2023-04-14T11:00:25.319Z,13.27
2023-04-14T11:01:32.791Z,13.04
2023-04-14T11:02:34.488Z,12.75
2023-04-14T11:03:32.791Z,12.71
2023-04-14T11:04:29.719Z,12.54
2023-04-14T11:05:27.094Z,12.43
2023-04-14T11:06:58.926Z,12.22
2023-04-14T11:08:02.680Z,11.93
2023-04-14T11:08:59.936Z,12.04
2023-04-14T11:10:25.132Z,11.74
2023-04-14T11:11:28.537Z,11.40
2023-04-14T11:12:27.746Z,11.25
2023-04-14T11:13:24.467Z,11.16
2023-04-14T11:14:30.797Z,10.94
2023-04-14T11:15:43.312Z,10.95
2023-04-14T11:16:44.801Z,11.06
2023-04-14T11:17:47.517Z,10.55
2023-04-14T11:19:00.149Z,10.70
2023-04-14T11:19:58.058Z,10.73
2023-04-14T11:21:01.308Z,10.87
2023-04-14T11:21:58.078Z,10.82
2023-04-14T11:22:57.674Z,11.03
2023-04-14T11:23:54.285Z,11.20
2023-04-14T11:24:50.939Z,11.02
2023-04-14T11:25:48.583Z,11.05
2023-04-14T11:26:45.587Z,11.04
2023-04-14T11:27:43.235Z,11.09
2023-04-14T11:28:42.939Z,10.94
2023-04-14T11:29:39.927Z,11.25
2023-04-14T11:30:36.671Z,11.59
2023-04-14T11:31:33.361Z,10.82
2023-04-14T11:32:31.102Z,11.43
2023-04-14T11:33:34.192Z,11.17
2023-04-14T11:34:31.290Z,11.86
2023-04-14T11:35:29.353Z,12.02
2023-04-14T11:36:26.061Z,11.75
2023-04-14T11:37:23.037Z,11.96
2023-04-14T11:38:20.905Z,12.00
2023-04-14T11:39:17.656Z,11.89
2023-04-14T11:40:16.709Z,11.81
2023-04-14T11:41:15.761Z,12.31
2023-04-14T11:42:13.134Z,11.98
2023-04-14T11:43:09.774Z,12.14
2023-04-14T11:44:06.460Z,12.32
2023-04-14T11:45:04.618Z,12.26
2023-04-14T11:46:04.735Z,12.29
2023-04-14T11:47:01.637Z,12.52
2023-04-14T11:48:05.748Z,13.34
2023-04-14T11:49:04.448Z,13.04
2023-04-14T11:50:05.355Z,13.01
2023-04-14T11:51:03.898Z,13.42
2023-04-14T11:52:08.159Z,12.88
2023-04-14T11:53:10.173Z,13.41
2023-04-14T11:54:07.078Z,13.25
2023-04-14T11:55:04.033Z,13.29
2023-04-14T11:56:01.419Z,13.00
2023-04-14T11:56:58.133Z,12.58
2023-04-14T11:57:56.141Z,12.95
2023-04-14T11:59:00.741Z,12.92
2023-04-14T11:59:57.631Z,13.14
2023-04-14T12:00:56.442Z,12.77
2023-04-14T12:01:53.480Z,12.29
2023-04-14T12:02:51.192Z,12.19
2023-04-14T12:03:49.662Z,11.88
2023-04-14T12:04:48.581Z,12.03
2023-04-14T12:05:47.154Z,11.82
2023-04-14T12:06:44.239Z,11.91
2023-04-14T12:07:44.532Z,11.46
2023-04-14T12:08:41.222Z,11.53
2023-04-14T12:09:44.685Z,11.22
2023-04-14T12:10:46.844Z,11.41
2023-04-14T12:11:53.709Z,11.29
2023-04-14T12:12:50.407Z,11.18
2023-04-14T12:13:48.045Z,11.29
2023-04-14T12:14:47.795Z,11.76
2023-04-14T12:15:44.959Z,11.25
2023-04-14T12:16:42.179Z,10.96
2023-04-14T12:17:39.155Z,10.93
2023-04-14T12:18:36.107Z,10.71
2023-04-14T12:19:32.910Z,10.59
2023-04-14T12:20:41.812Z,10.70
2023-04-14T12:21:38.534Z,10.01
2023-04-14T12:22:35.284Z,9.71
2023-04-14T12:23:39.999Z,8.88
2023-04-14T12:24:38.454Z,9.39
2023-04-14T12:25:35.043Z,9.50
2023-04-14T12:26:32.759Z,9.28
2023-04-14T12:27:29.496Z,9.13
2023-04-14T12:28:30.475Z,9.25
2023-04-14T12:29:27.452Z,8.92
2023-04-14T12:30:24.559Z,9.14
2023-04-14T12:31:28.740Z,8.97
2023-04-14T12:32:25.791Z,8.87
2023-04-14T12:33:23.834Z,8.09
2023-04-14T12:34:26.907Z,8.04
2023-04-14T12:35:24.188Z,8.19
2023-04-14T12:36:21.756Z,8.37
2023-04-14T12:37:25.222Z,8.63
2023-04-14T12:38:28.139Z,8.49
2023-04-14T12:39:26.126Z,8.62
2023-04-14T12:40:38.429Z,8.45
2023-04-14T12:41:39.466Z,8.36
2023-04-14T12:42:51.403Z,8.19
2023-04-14T12:43:48.155Z,7.82
2023-04-14T12:45:01.255Z,8.36
2023-04-14T12:46:00.686Z,8.37
2023-04-14T12:46:58.272Z,8.50